createdAt,value
2023-05-10T00:00:11.093Z,8.59
2023-05-10T00:01:18.025Z,8.60
2023-05-10T00:02:20.229Z,8.61
2023-05-10T00:03:24.192Z,8.62
2023-05-10T00:04:26.634Z,8.63
2023-05-10T00:05:31.459Z,8.60
2023-05-10T00:06:33.776Z,8.59
2023-05-10T00:07:35.792Z,8.59
2023-05-10T00:08:38.173Z,8.60
2023-05-10T00:09:40.092Z,8.61
2023-05-10T00:10:42.379Z,8.62
2023-05-10T00:11:44.538Z,8.64
2023-05-10T00:12:46.464Z,8.65
2023-05-10T00:13:48.459Z,8.63
2023-05-10T00:14:50.423Z,8.62
2023-05-10T00:15:52.650Z,8.61
2023-05-10T00:16:54.939Z,8.61
2023-05-10T00:17:57.841Z,8.62
2023-05-10T00:18:59.964Z,8.63
2023-05-10T00:20:02.295Z,8.65
2023-05-10T00:21:05.834Z,8.67
2023-05-10T00:22:08.381Z,8.68
2023-05-10T00:23:10.294Z,8.70
2023-05-10T00:24:12.299Z,8.70
2023-05-10T00:25:14.406Z,8.71
2023-05-10T00:26:17.292Z,8.73
2023-05-10T00:27:20.758Z,8.73
2023-05-10T00:28:23.932Z,8.71
2023-05-10T00:29:26.029Z,8.70
2023-05-10T00:30:29.953Z,8.70
2023-05-10T00:31:32.137Z,8.70
2023-05-10T00:32:34.691Z,8.70
2023-05-10T00:33:36.748Z,8.69
2023-05-10T00:34:38.761Z,8.69
2023-05-10T00:35:41.898Z,8.70
2023-05-10T00:36:45.175Z,8.68
2023-05-10T00:37:47.332Z,8.67
2023-05-10T00:38:49.312Z,8.64
2023-05-10T00:39:51.468Z,8.64
2023-05-10T00:40:54.551Z,8.63
2023-05-10T00:41:58.367Z,8.63
2023-05-10T00:43:02.375Z,8.61
2023-05-10T00:44:07.574Z,8.62
2023-05-10T00:45:11.211Z,8.61
2023-05-10T00:46:14.936Z,8.60
2023-05-10T00:47:17.586Z,8.61
2023-05-10T00:48:19.601Z,8.62
2023-05-10T00:49:21.650Z,8.62
2023-05-10T00:50:24.180Z,8.64
2023-05-10T00:51:26.124Z,8.65
2023-05-10T00:52:29.447Z,8.67
2023-05-10T00:53:32.374Z,8.69
2023-05-10T00:54:34.442Z,8.70
2023-05-10T00:55:37.458Z,8.71
2023-05-10T00:56:39.632Z,8.72
2023-05-10T00:57:41.788Z,8.71
2023-05-10T00:58:44.032Z,8.72
2023-05-10T00:59:46.503Z,8.70
2023-05-10T01:00:49.646Z,8.69
2023-05-10T01:01:51.918Z,8.70
2023-05-10T01:02:55.884Z,8.70
2023-05-10T01:03:58.337Z,8.71
2023-05-10T01:05:01.444Z,8.72
2023-05-10T01:06:06.889Z,8.73
2023-05-10T01:07:09.111Z,8.74
2023-05-10T01:08:11.016Z,8.74
2023-05-10T01:09:13.134Z,8.75
2023-05-10T01:10:16.612Z,8.75
2023-05-10T01:11:19.409Z,8.76
2023-05-10T01:12:21.560Z,8.77
2023-05-10T01:13:36.145Z,8.77
2023-05-10T01:14:38.296Z,8.77
2023-05-10T01:15:42.353Z,8.77
2023-05-10T01:16:45.133Z,8.76
2023-05-10T01:17:47.156Z,8.76
2023-05-10T01:18:49.360Z,8.76
2023-05-10T01:19:52.481Z,8.74
2023-05-10T01:21:11.705Z,8.73
2023-05-10T01:22:17.407Z,8.72
2023-05-10T01:24:58.515Z,8.82
2023-05-10T01:26:04.385Z,8.72
2023-05-10T01:27:16.340Z,8.75
2023-05-10T01:28:31.276Z,8.75
2023-05-10T01:30:13.990Z,8.77
2023-05-10T01:31:25.633Z,8.78
2023-05-10T01:33:54.013Z,8.93
2023-05-10T01:35:05.922Z,8.83
2023-05-10T01:36:17.690Z,8.84
2023-05-10T01:38:48.053Z,8.95
2023-05-10T01:39:59.906Z,8.85
2023-05-10T01:42:28.841Z,8.95
2023-05-10T01:43:33.621Z,8.84
2023-05-10T01:44:47.624Z,8.82
2023-05-10T01:46:11.116Z,8.83
2023-05-10T01:47:16.186Z,8.83
2023-05-10T01:48:18.434Z,8.84
2023-05-10T01:50:35.033Z,8.95
2023-05-10T01:51:40.116Z,8.85
2023-05-10T01:52:42.869Z,8.84
2023-05-10T01:53:45.351Z,8.84
2023-05-10T01:56:05.183Z,8.90
2023-05-10T01:57:07.896Z,8.78
2023-05-10T01:58:10.826Z,8.72
2023-05-10T01:59:15.719Z,8.70
2023-05-10T02:00:18.033Z,8.69
2023-05-10T02:01:21.080Z,8.69
2023-05-10T02:02:23.419Z,8.68
2023-05-10T02:03:25.648Z,8.66
2023-05-10T02:04:27.825Z,8.65
2023-05-10T02:05:29.894Z,8.63
2023-05-10T02:06:32.169Z,8.60
2023-05-10T02:07:35.867Z,8.58
2023-05-10T02:08:37.998Z,8.57
2023-05-10T02:09:40.075Z,8.53
2023-05-10T02:10:42.311Z,8.52
2023-05-10T02:11:44.392Z,8.49
2023-05-10T02:12:47.041Z,8.47
2023-05-10T02:13:50.050Z,8.45
2023-05-10T02:14:52.296Z,8.42
2023-05-10T02:15:54.416Z,8.40
2023-05-10T02:16:56.713Z,8.37
2023-05-10T02:17:58.968Z,8.35
2023-05-10T02:19:01.164Z,8.33
2023-05-10T02:20:04.124Z,8.30
2023-05-10T02:21:06.370Z,8.27
2023-05-10T02:22:08.610Z,8.26
2023-05-10T02:23:10.701Z,8.25
2023-05-10T02:24:12.787Z,8.23
2023-05-10T02:25:14.874Z,8.21
2023-05-10T02:26:17.003Z,8.18
2023-05-10T02:27:18.842Z,8.18
2023-05-10T02:28:21.727Z,8.15
2023-05-10T02:30:34.087Z,8.24
2023-05-10T02:31:36.419Z,8.13
2023-05-10T02:32:40.286Z,8.12
2023-05-10T02:33:42.312Z,8.10
2023-05-10T02:34:44.340Z,8.11
2023-05-10T02:35:47.131Z,8.11
2023-05-10T02:36:50.350Z,8.10
2023-05-10T02:37:52.250Z,8.10
2023-05-10T02:38:54.090Z,8.09
2023-05-10T02:39:56.134Z,8.10
2023-05-10T02:41:00.267Z,8.09
2023-05-10T02:42:02.364Z,8.07
2023-05-10T02:43:05.302Z,8.06
2023-05-10T02:44:07.268Z,8.07
2023-05-10T02:46:21.651Z,8.18
2023-05-10T02:47:24.341Z,8.06
2023-05-10T02:48:26.235Z,8.06
2023-05-10T02:49:28.122Z,8.07
2023-05-10T02:50:31.017Z,8.08
2023-05-10T02:51:35.307Z,8.08
2023-05-10T02:52:40.655Z,8.08
2023-05-10T02:53:42.628Z,8.11
2023-05-10T02:54:45.615Z,8.13
2023-05-10T02:55:50.022Z,8.14
2023-05-10T02:58:03.688Z,8.25
2023-05-10T02:59:05.880Z,8.15
2023-05-10T03:00:15.938Z,8.15
2023-05-10T03:01:18.350Z,8.14
2023-05-10T03:02:21.175Z,8.16
2023-05-10T03:03:23.242Z,8.16
2023-05-10T03:04:26.731Z,8.17
2023-05-10T03:05:30.459Z,8.19
2023-05-10T03:06:34.754Z,8.19
2023-05-10T03:07:38.278Z,8.19
2023-05-10T03:08:40.293Z,8.20
2023-05-10T03:09:43.175Z,8.22
2023-05-10T03:10:58.025Z,8.22
2023-05-10T03:12:06.651Z,8.24
2023-05-10T03:13:31.371Z,8.25
2023-05-10T03:14:37.386Z,8.29
2023-05-10T03:16:06.338Z,8.31
2023-05-10T03:17:26.130Z,8.32
2023-05-10T03:18:39.026Z,8.35
2023-05-10T03:19:56.653Z,8.37
2023-05-10T03:21:02.387Z,8.38
2023-05-10T03:22:07.783Z,8.40
2023-05-10T03:23:20.134Z,8.42
2023-05-10T03:24:23.323Z,8.43
2023-05-10T03:25:27.212Z,8.40
2023-05-10T03:26:29.419Z,8.40
2023-05-10T03:27:40.931Z,8.43
2023-05-10T03:28:43.070Z,8.45
2023-05-10T03:29:45.146Z,8.48
2023-05-10T03:30:48.639Z,8.53
2023-05-10T03:31:50.706Z,8.56
2023-05-10T03:32:53.261Z,8.60
2023-05-10T03:33:56.476Z,8.64
2023-05-10T03:35:00.450Z,8.68
2023-05-10T03:36:02.692Z,8.71
2023-05-10T03:37:04.697Z,8.71
2023-05-10T03:38:07.149Z,8.72
2023-05-10T03:39:09.628Z,8.74
2023-05-10T03:40:13.111Z,8.78
2023-05-10T03:41:17.296Z,8.85
2023-05-10T03:42:19.299Z,8.89
2023-05-10T03:43:21.548Z,8.94
2023-05-10T03:44:23.802Z,8.99
2023-05-10T03:45:25.843Z,9.03
2023-05-10T03:46:28.758Z,9.06
2023-05-10T03:47:31.026Z,9.12
2023-05-10T03:48:33.991Z,9.15
2023-05-10T03:49:36.192Z,9.20
2023-05-10T03:50:39.067Z,9.21
2023-05-10T03:51:41.284Z,9.21
2023-05-10T03:52:43.478Z,9.25
2023-05-10T03:53:45.563Z,9.27
2023-05-10T03:54:48.063Z,9.31
2023-05-10T03:55:51.171Z,9.36
2023-05-10T03:56:54.545Z,9.42
2023-05-10T03:57:57.168Z,9.46
2023-05-10T04:03:22.705Z,9.66
2023-05-10T04:08:39.914Z,9.88
2023-05-10T04:09:42.567Z,9.97
2023-05-10T04:10:44.869Z,10.03
2023-05-10T04:11:46.840Z,10.12
2023-05-10T04:12:49.052Z,10.19
2023-05-10T04:13:51.046Z,10.26
2023-05-10T04:14:53.134Z,10.35
2023-05-10T04:15:55.064Z,10.39
2023-05-10T04:16:57.206Z,10.41
2023-05-10T04:17:59.558Z,10.45
2023-05-10T04:19:01.856Z,10.49
2023-05-10T04:20:08.712Z,10.56
2023-05-10T04:21:14.246Z,10.66
2023-05-10T04:22:16.419Z,10.76
2023-05-10T04:23:18.442Z,10.84
2023-05-10T04:24:20.410Z,10.89
2023-05-10T04:25:22.568Z,10.87
2023-05-10T04:26:24.810Z,10.84
2023-05-10T04:27:26.809Z,10.84
2023-05-10T04:28:29.026Z,10.85
2023-05-10T04:29:33.335Z,10.83
2023-05-10T04:30:35.564Z,10.82
2023-05-10T04:31:37.829Z,10.77
2023-05-10T04:32:39.984Z,10.72
2023-05-10T04:33:42.308Z,10.69
2023-05-10T04:34:44.983Z,10.68
2023-05-10T04:35:47.131Z,10.69
2023-05-10T04:36:49.412Z,10.68
2023-05-10T04:37:51.604Z,10.66
2023-05-10T04:38:55.002Z,10.66
2023-05-10T04:39:57.077Z,10.61
2023-05-10T04:41:09.906Z,10.61
2023-05-10T04:42:12.048Z,10.61
2023-05-10T04:43:14.073Z,10.57
2023-05-10T04:44:16.081Z,10.56
2023-05-10T04:45:20.266Z,10.55
2023-05-10T04:46:22.700Z,10.53
2023-05-10T04:47:25.719Z,10.51
2023-05-10T04:48:27.838Z,10.44
2023-05-10T04:49:30.807Z,10.43
2023-05-10T04:50:33.578Z,10.43
2023-05-10T04:51:35.526Z,10.44
2023-05-10T04:52:37.644Z,10.45
2023-05-10T04:53:39.750Z,10.44
2023-05-10T04:54:41.942Z,10.42
2023-05-10T04:55:43.916Z,10.43
2023-05-10T04:56:46.045Z,10.38
2023-05-10T04:57:48.154Z,10.33
2023-05-10T04:58:50.176Z,10.28
2023-05-10T04:59:52.440Z,10.24
2023-05-10T05:00:54.581Z,10.22
2023-05-10T05:01:56.652Z,10.19
2023-05-10T05:03:00.254Z,10.18
2023-05-10T05:04:02.741Z,10.12
2023-05-10T05:05:08.412Z,10.10
2023-05-10T05:06:10.984Z,10.07
2023-05-10T05:07:12.943Z,10.04
2023-05-10T05:08:15.027Z,10.03
2023-05-10T05:09:17.591Z,10.03
2023-05-10T05:10:19.969Z,10.02
2023-05-10T05:11:22.849Z,10.07
2023-05-10T05:12:25.059Z,10.14
2023-05-10T05:13:27.488Z,10.21
2023-05-10T05:14:29.847Z,10.26
2023-05-10T05:15:31.927Z,10.33
2023-05-10T05:16:35.373Z,10.37
2023-05-10T05:17:38.019Z,10.42
2023-05-10T05:18:40.377Z,10.45
2023-05-10T05:19:42.279Z,10.49
2023-05-10T05:20:44.625Z,10.49
2023-05-10T05:21:46.711Z,10.52
2023-05-10T05:22:48.630Z,10.57
2023-05-10T05:23:50.688Z,10.66
2023-05-10T05:24:52.707Z,10.68
2023-05-10T05:25:54.712Z,10.76
2023-05-10T05:26:57.291Z,10.84
2023-05-10T05:27:59.384Z,10.95
2023-05-10T05:29:01.352Z,11.07
2023-05-10T05:30:10.391Z,11.17
2023-05-10T05:31:14.595Z,11.28
2023-05-10T05:32:17.249Z,11.37
2023-05-10T05:33:19.469Z,11.46
2023-05-10T05:34:21.524Z,11.48
2023-05-10T05:35:26.524Z,11.51
2023-05-10T05:36:28.816Z,11.55
2023-05-10T05:37:30.789Z,11.56
2023-05-10T05:38:32.728Z,11.59
2023-05-10T05:39:36.660Z,11.62
2023-05-10T05:40:40.744Z,11.63
2023-05-10T05:41:42.945Z,11.56
2023-05-10T05:42:45.136Z,11.52
2023-05-10T05:43:47.239Z,11.47
2023-05-10T05:44:49.463Z,11.41
2023-05-10T05:45:53.196Z,11.37
2023-05-10T05:46:55.948Z,11.38
2023-05-10T05:47:58.133Z,11.42
2023-05-10T05:49:00.276Z,11.50
2023-05-10T05:50:03.069Z,11.52
2023-05-10T05:51:07.190Z,11.57
2023-05-10T05:52:09.811Z,11.62
2023-05-10T05:53:12.141Z,11.66
2023-05-10T05:54:14.045Z,11.61
2023-05-10T05:55:16.346Z,11.64
2023-05-10T05:56:19.015Z,11.70
2023-05-10T05:57:21.102Z,11.75
2023-05-10T05:58:23.183Z,11.79
2023-05-10T05:59:25.662Z,11.83
2023-05-10T06:00:28.287Z,11.89
2023-05-10T06:01:30.700Z,11.90
2023-05-10T06:02:33.057Z,11.95
2023-05-10T06:03:37.029Z,11.96
2023-05-10T06:04:42.802Z,11.98
2023-05-10T06:05:44.620Z,12.00
2023-05-10T06:06:47.812Z,11.98
2023-05-10T06:07:51.053Z,11.95
2023-05-10T06:08:55.602Z,11.92
2023-05-10T06:09:59.928Z,11.94
2023-05-10T06:11:01.918Z,11.93
2023-05-10T06:12:04.045Z,11.94
2023-05-10T06:13:06.372Z,11.92
2023-05-10T06:14:09.227Z,11.91
2023-05-10T06:15:16.568Z,11.91
2023-05-10T06:16:18.919Z,11.91
2023-05-10T06:17:21.276Z,11.86
2023-05-10T06:18:23.816Z,11.85
2023-05-10T06:19:25.835Z,11.85
2023-05-10T06:20:28.393Z,11.85
2023-05-10T06:21:31.048Z,11.84
2023-05-10T06:22:33.076Z,11.85
2023-05-10T06:23:35.049Z,11.85
2023-05-10T06:24:37.162Z,11.88
2023-05-10T06:25:39.413Z,11.85
2023-05-10T06:26:42.114Z,11.85
2023-05-10T06:27:48.903Z,11.85
2023-05-10T06:28:49.786Z,11.82
2023-05-10T06:29:56.501Z,11.81
2023-05-10T06:30:56.738Z,11.80
2023-05-10T06:31:58.934Z,11.81
2023-05-10T06:33:00.904Z,11.79
2023-05-10T06:34:05.220Z,11.80
2023-05-10T06:35:09.456Z,11.84
2023-05-10T06:36:12.578Z,11.85
2023-05-10T06:37:14.704Z,11.90
2023-05-10T06:38:16.605Z,11.93
2023-05-10T06:39:18.991Z,11.99
2023-05-10T06:40:21.142Z,12.03
2023-05-10T06:41:24.685Z,12.05
2023-05-10T06:42:27.235Z,12.06
2023-05-10T06:43:29.360Z,12.08
2023-05-10T06:44:32.413Z,12.11
2023-05-10T06:45:34.642Z,12.17
2023-05-10T06:46:37.156Z,12.26
2023-05-10T06:47:39.669Z,12.33
2023-05-10T06:48:42.318Z,12.47
2023-05-10T06:49:44.642Z,12.61
2023-05-10T06:50:47.249Z,12.76
2023-05-10T06:51:49.497Z,12.88
2023-05-10T06:52:53.066Z,12.97
2023-05-10T06:53:55.596Z,13.02
2023-05-10T06:54:57.763Z,13.09
2023-05-10T06:55:59.770Z,13.14
2023-05-10T06:57:03.130Z,13.20
2023-05-10T06:58:05.659Z,13.23
2023-05-10T06:59:07.931Z,13.28
2023-05-10T07:00:14.562Z,13.31
2023-05-10T07:01:17.252Z,13.32
2023-05-10T07:02:19.905Z,13.32
2023-05-10T07:03:22.330Z,13.34
2023-05-10T07:04:26.446Z,13.29
2023-05-10T07:05:30.585Z,13.27
2023-05-10T07:06:33.968Z,13.22
2023-05-10T07:07:36.462Z,13.22
2023-05-10T07:08:38.846Z,13.26
2023-05-10T07:09:41.219Z,13.22
2023-05-10T07:10:43.928Z,13.27
2023-05-10T07:11:46.051Z,13.30
2023-05-10T07:12:48.300Z,13.32
2023-05-10T07:13:53.806Z,13.28
2023-05-10T07:14:56.023Z,13.30
2023-05-10T07:15:59.207Z,13.26
2023-05-10T07:17:01.995Z,13.24
2023-05-10T07:18:04.352Z,13.18
2023-05-10T07:19:07.134Z,13.12
2023-05-10T07:20:13.131Z,13.07
2023-05-10T07:21:15.429Z,13.04
2023-05-10T07:22:18.051Z,13.08
2023-05-10T07:23:20.414Z,13.11
2023-05-10T07:24:22.727Z,13.15
2023-05-10T07:25:24.854Z,13.22
2023-05-10T07:26:27.485Z,13.31
2023-05-10T07:27:29.681Z,13.35
2023-05-10T07:28:31.696Z,13.37
2023-05-10T07:29:33.790Z,13.39
2023-05-10T07:30:36.251Z,13.41
2023-05-10T07:31:39.289Z,13.42
2023-05-10T07:32:41.645Z,13.45
2023-05-10T07:33:43.901Z,13.52
2023-05-10T07:34:46.496Z,13.59
2023-05-10T07:35:48.595Z,13.63
2023-05-10T07:36:50.987Z,13.68
2023-05-10T07:37:53.137Z,13.71
2023-05-10T07:38:55.164Z,13.75
2023-05-10T07:39:57.538Z,13.80
2023-05-10T07:41:00.195Z,13.83
2023-05-10T07:42:02.447Z,13.83
2023-05-10T07:43:04.674Z,13.88
2023-05-10T07:44:07.339Z,13.90
2023-05-10T07:45:12.594Z,13.98
2023-05-10T07:46:15.119Z,14.01
2023-05-10T07:47:17.372Z,13.97
2023-05-10T07:48:19.275Z,13.95
2023-05-10T07:49:21.352Z,13.93
2023-05-10T07:50:24.651Z,13.86
2023-05-10T07:51:26.707Z,13.87
2023-05-10T07:52:28.906Z,13.88
2023-05-10T07:53:30.963Z,13.93
2023-05-10T07:54:33.276Z,13.97
2023-05-10T07:55:35.320Z,14.02
2023-05-10T07:56:37.612Z,14.10
2023-05-10T07:57:39.783Z,14.14
2023-05-10T07:58:42.526Z,14.12
2023-05-10T07:59:44.761Z,14.15
2023-05-10T08:00:47.106Z,14.14
2023-05-10T08:01:49.257Z,14.07
2023-05-10T08:02:51.482Z,14.00
2023-05-10T08:03:55.537Z,13.93
2023-05-10T08:04:58.142Z,13.97
2023-05-10T08:06:00.469Z,13.99
2023-05-10T08:07:02.445Z,14.12
2023-05-10T08:08:04.832Z,14.23
2023-05-10T08:09:06.957Z,14.35
2023-05-10T08:10:10.356Z,14.42
2023-05-10T08:11:12.373Z,14.54
2023-05-10T08:12:14.625Z,14.65
2023-05-10T08:13:16.865Z,14.76
2023-05-10T08:14:19.127Z,14.77
2023-05-10T08:15:21.275Z,14.80
2023-05-10T08:16:23.828Z,14.86
2023-05-10T08:17:26.430Z,14.95
2023-05-10T08:18:28.817Z,15.02
2023-05-10T08:19:31.114Z,15.05
2023-05-10T08:20:34.061Z,15.09
2023-05-10T08:21:36.270Z,15.16
2023-05-10T08:22:38.318Z,15.25
2023-05-10T08:23:40.690Z,15.30
2023-05-10T08:24:42.989Z,15.33
2023-05-10T08:25:45.523Z,15.43
2023-05-10T08:26:47.963Z,15.50
2023-05-10T08:27:50.264Z,15.51
2023-05-10T08:28:54.132Z,15.56
2023-05-10T08:29:56.190Z,15.65
2023-05-10T08:30:59.210Z,15.65
2023-05-10T08:32:02.019Z,15.61
2023-05-10T08:33:04.315Z,15.61
2023-05-10T08:34:07.048Z,15.63
2023-05-10T08:35:09.460Z,15.56
2023-05-10T08:36:14.653Z,15.51
2023-05-10T08:37:16.763Z,15.51
2023-05-10T08:38:18.797Z,15.48
2023-05-10T08:39:29.677Z,15.43
2023-05-10T08:40:25.431Z,15.37
2023-05-10T08:41:27.547Z,15.31
2023-05-10T08:42:30.752Z,15.15
2023-05-10T08:43:32.927Z,15.01
2023-05-10T08:44:35.867Z,14.99
2023-05-10T08:45:40.425Z,14.96
2023-05-10T08:46:42.530Z,14.96
2023-05-10T08:47:45.126Z,15.03
2023-05-10T08:48:51.352Z,15.09
2023-05-10T08:49:53.758Z,15.15
2023-05-10T08:50:56.326Z,15.18
2023-05-10T08:51:58.399Z,15.20
2023-05-10T08:53:01.369Z,15.23
2023-05-10T08:54:04.868Z,15.25
2023-05-10T08:55:10.403Z,15.25
2023-05-10T08:56:12.889Z,15.24
2023-05-10T08:57:15.358Z,15.16
2023-05-10T08:58:17.627Z,15.08
2023-05-10T08:59:19.883Z,14.98
2023-05-10T09:00:23.367Z,14.96
2023-05-10T09:01:25.620Z,14.96
2023-05-10T09:02:28.429Z,15.00
2023-05-10T09:03:31.513Z,14.99
2023-05-10T09:04:33.775Z,15.00
2023-05-10T09:05:36.861Z,15.01
2023-05-10T09:06:39.161Z,15.01
2023-05-10T09:07:41.216Z,15.01
2023-05-10T09:08:43.524Z,15.00
2023-05-10T09:09:46.362Z,14.94
2023-05-10T09:10:49.099Z,14.90
2023-05-10T09:11:52.805Z,14.92
2023-05-10T09:12:59.347Z,14.95
2023-05-10T09:14:01.702Z,14.91
2023-05-10T09:15:06.221Z,14.90
2023-05-10T09:16:20.416Z,14.91
2023-05-10T09:17:12.622Z,14.95
2023-05-10T09:18:14.799Z,15.02
2023-05-10T09:19:18.684Z,15.08
2023-05-10T09:20:20.829Z,15.09
2023-05-10T09:21:22.960Z,15.02
2023-05-10T09:22:25.478Z,15.00
2023-05-10T09:23:27.508Z,15.00
2023-05-10T09:24:30.620Z,15.02
2023-05-10T09:25:33.035Z,15.05
2023-05-10T09:26:36.294Z,15.02
2023-05-10T09:28:53.984Z,15.15
2023-05-10T09:29:56.390Z,15.08
2023-05-10T09:30:59.571Z,15.07
2023-05-10T09:32:01.901Z,15.10
2023-05-10T09:33:04.186Z,15.11
2023-05-10T09:34:06.170Z,15.12
2023-05-10T09:35:22.748Z,15.12
2023-05-10T09:36:24.978Z,15.13
2023-05-10T09:37:30.307Z,15.17
2023-05-10T09:38:36.053Z,15.11
2023-05-10T09:39:38.211Z,14.96
2023-05-10T09:40:40.614Z,14.88
2023-05-10T09:41:42.676Z,14.85
2023-05-10T09:43:03.037Z,14.88
2023-05-10T09:44:05.390Z,14.90
2023-05-10T09:45:09.699Z,14.92
2023-05-10T09:46:12.967Z,14.95
2023-05-10T09:47:18.858Z,15.01
2023-05-10T09:48:23.984Z,14.96
2023-05-10T09:49:26.684Z,14.93
2023-05-10T09:50:30.507Z,14.89
2023-05-10T09:51:36.653Z,14.92
2023-05-10T09:52:56.807Z,14.97
2023-05-10T09:54:16.184Z,15.02
2023-05-10T09:55:21.645Z,15.08
2023-05-10T09:56:33.772Z,15.14
2023-05-10T09:57:35.913Z,15.16
2023-05-10T09:58:37.986Z,15.13
2023-05-10T09:59:42.994Z,15.10
2023-05-10T10:00:46.870Z,15.12
2023-05-10T10:01:52.260Z,15.13
2023-05-10T10:02:55.899Z,15.07
2023-05-10T10:03:59.956Z,15.03
2023-05-10T10:05:02.233Z,14.96
2023-05-10T10:06:15.866Z,14.97
2023-05-10T10:07:11.654Z,14.95
2023-05-10T10:08:14.012Z,14.94
2023-05-10T10:09:16.382Z,14.91
2023-05-10T10:10:19.970Z,14.91
2023-05-10T10:11:22.358Z,14.83
2023-05-10T10:12:24.627Z,14.72
2023-05-10T10:13:26.909Z,14.66
2023-05-10T10:14:29.755Z,14.67
2023-05-10T10:15:31.883Z,14.68
2023-05-10T10:16:34.297Z,14.71
2023-05-10T10:17:36.985Z,14.77
2023-05-10T10:18:39.414Z,14.79
2023-05-10T10:19:41.920Z,14.82
2023-05-10T10:20:44.641Z,14.82
2023-05-10T10:21:48.003Z,14.84
2023-05-10T10:22:50.280Z,14.84
2023-05-10T10:23:52.670Z,14.88
2023-05-10T10:24:55.021Z,14.92
2023-05-10T10:25:57.244Z,14.94
2023-05-10T10:28:20.953Z,15.03
2023-05-10T10:29:41.357Z,14.93
2023-05-10T10:30:47.803Z,14.93
2023-05-10T10:32:12.057Z,14.88
2023-05-10T10:33:30.046Z,14.85
2023-05-10T10:34:32.966Z,14.72
2023-05-10T10:35:35.206Z,14.64
2023-05-10T10:36:47.932Z,14.62
2023-05-10T10:37:51.285Z,14.59
2023-05-10T10:39:00.700Z,14.55
2023-05-10T10:40:23.636Z,14.47
2023-05-10T10:41:37.324Z,14.44
2023-05-10T10:42:45.208Z,14.37
2023-05-10T10:43:48.325Z,14.33
2023-05-10T10:44:50.667Z,14.34
2023-05-10T10:46:11.947Z,14.32
2023-05-10T10:47:20.756Z,14.29
2023-05-10T10:48:24.013Z,14.28
2023-05-10T10:49:26.225Z,14.29
2023-05-10T10:50:29.608Z,14.29
2023-05-10T10:51:31.727Z,14.29
2023-05-10T10:52:35.472Z,14.25
2023-05-10T10:53:38.566Z,14.26
2023-05-10T10:54:40.852Z,14.29
2023-05-10T10:55:49.283Z,14.32
2023-05-10T10:57:13.931Z,14.35
2023-05-10T10:58:31.546Z,14.34
2023-05-10T11:04:02.482Z,14.44
2023-05-10T11:05:31.735Z,14.44
2023-05-10T11:06:35.878Z,14.49
2023-05-10T11:08:51.884Z,14.67
2023-05-10T11:09:54.064Z,14.62
2023-05-10T11:11:02.899Z,14.64
2023-05-10T11:12:08.484Z,14.68
2023-05-10T11:13:12.557Z,14.68
2023-05-10T11:14:14.618Z,14.74
2023-05-10T11:15:17.122Z,14.78
2023-05-10T11:16:22.619Z,14.81
2023-05-10T11:18:36.838Z,15.03
2023-05-10T11:19:39.096Z,14.95
2023-05-10T11:20:41.430Z,14.97
2023-05-10T11:21:52.411Z,15.03
2023-05-10T11:22:54.565Z,15.13
2023-05-10T11:23:57.549Z,15.24
2023-05-10T11:25:00.304Z,15.35
2023-05-10T11:26:02.431Z,15.37
2023-05-10T11:27:04.459Z,15.41
2023-05-10T11:28:06.594Z,15.47
2023-05-10T11:29:08.773Z,15.46
2023-05-10T11:30:14.694Z,15.51
2023-05-10T11:31:19.070Z,15.54
2023-05-10T11:32:21.632Z,15.61
2023-05-10T11:33:23.941Z,15.70
2023-05-10T11:34:28.564Z,15.74
2023-05-10T11:35:30.893Z,15.81
2023-05-10T11:36:35.777Z,15.89
2023-05-10T11:37:41.888Z,16.00
2023-05-10T11:38:44.093Z,16.15
2023-05-10T11:39:46.695Z,16.31
2023-05-10T11:40:51.454Z,16.41
2023-05-10T11:41:53.617Z,16.52
2023-05-10T11:42:57.028Z,16.51
2023-05-10T11:43:59.279Z,16.49
2023-05-10T11:45:01.864Z,16.34
2023-05-10T11:46:05.829Z,16.34
2023-05-10T11:47:08.179Z,16.33
2023-05-10T11:48:10.376Z,16.40
2023-05-10T11:49:12.977Z,16.43
2023-05-10T11:50:16.164Z,16.49
2023-05-10T11:51:24.629Z,16.59
2023-05-10T11:52:26.752Z,16.58
2023-05-10T11:53:31.333Z,16.55
2023-05-10T11:54:33.454Z,16.53
2023-05-10T11:55:35.489Z,16.54
2023-05-10T11:56:40.015Z,16.46
2023-05-10T11:57:42.733Z,16.45
2023-05-10T11:58:45.339Z,16.49
2023-05-10T11:59:48.310Z,16.54
2023-05-10T12:00:50.873Z,16.63
2023-05-10T12:01:53.249Z,16.71
2023-05-10T12:02:55.817Z,16.71
2023-05-10T12:03:58.838Z,16.71
2023-05-10T12:05:01.380Z,16.63
2023-05-10T12:06:06.042Z,16.67
2023-05-10T12:07:12.378Z,16.66
2023-05-10T12:08:15.376Z,16.71
2023-05-10T12:09:20.982Z,16.76
2023-05-10T12:10:26.779Z,16.82
2023-05-10T12:11:29.437Z,16.86
2023-05-10T12:14:12.875Z,17.09
2023-05-10T12:15:23.375Z,17.03
2023-05-10T12:16:31.410Z,17.06
2023-05-10T12:17:33.606Z,17.14
2023-05-10T12:18:36.182Z,17.20
2023-05-10T12:19:38.950Z,17.21
2023-05-10T12:20:41.343Z,17.19
2023-05-10T12:21:43.285Z,17.18
2023-05-10T12:22:58.332Z,17.17
2023-05-10T12:24:02.675Z,17.19
2023-05-10T12:25:08.603Z,17.22
2023-05-10T12:26:10.986Z,17.22
2023-05-10T12:28:22.689Z,17.25
2023-05-10T12:29:25.036Z,17.07
2023-05-10T12:30:31.540Z,16.82
2023-05-10T12:31:33.905Z,16.77
2023-05-10T12:32:44.079Z,16.72
2023-05-10T12:33:46.211Z,16.62
2023-05-10T12:34:48.511Z,16.60
2023-05-10T12:35:52.315Z,16.63
2023-05-10T12:36:54.502Z,16.64
2023-05-10T12:37:56.586Z,16.57
2023-05-10T12:39:03.815Z,16.37
2023-05-10T12:40:09.967Z,16.26
2023-05-10T12:41:14.725Z,16.22
2023-05-10T12:42:17.022Z,16.16
2023-05-10T12:43:22.051Z,16.19
2023-05-10T12:44:24.310Z,16.17
2023-05-10T12:45:26.609Z,16.22
2023-05-10T12:46:31.581Z,16.17
2023-05-10T12:47:34.891Z,16.17
2023-05-10T12:48:37.808Z,16.22
2023-05-10T12:49:40.032Z,16.13
2023-05-10T12:50:43.350Z,16.20
2023-05-10T12:51:45.254Z,16.13
2023-05-10T12:52:47.394Z,16.13
2023-05-10T12:53:49.798Z,16.07
2023-05-10T12:54:54.171Z,16.10
2023-05-10T12:55:56.501Z,16.13
2023-05-10T12:56:58.926Z,16.13
2023-05-10T12:58:01.009Z,16.12
2023-05-10T12:59:03.212Z,16.09
2023-05-10T13:00:08.344Z,16.08
2023-05-10T13:01:12.711Z,16.05
2023-05-10T13:02:15.928Z,15.96
2023-05-10T13:03:21.801Z,16.01
2023-05-10T13:04:24.001Z,15.99
2023-05-10T13:05:26.326Z,16.01
2023-05-10T13:06:30.250Z,16.03
2023-05-10T13:07:32.949Z,16.04
2023-05-10T13:08:35.317Z,16.02
2023-05-10T13:09:37.670Z,15.98
2023-05-10T13:10:40.203Z,16.01
2023-05-10T13:11:42.658Z,16.05
2023-05-10T13:12:46.949Z,16.09
2023-05-10T13:13:49.112Z,16.15
2023-05-10T13:14:51.232Z,16.17
2023-05-10T13:17:05.240Z,16.39
2023-05-10T13:18:11.525Z,16.33
2023-05-10T13:19:19.419Z,16.35
2023-05-10T13:20:22.090Z,16.31
2023-05-10T13:21:24.541Z,16.26
2023-05-10T13:22:39.230Z,16.17
2023-05-10T13:23:34.756Z,16.22
2023-05-10T13:25:52.926Z,16.37
2023-05-10T13:26:57.161Z,16.28
2023-05-10T13:28:01.601Z,16.29
2023-05-10T13:29:04.210Z,16.32
2023-05-10T13:30:10.812Z,16.33
2023-05-10T13:31:16.344Z,16.28
2023-05-10T13:32:20.652Z,16.30
2023-05-10T13:33:22.899Z,16.33
2023-05-10T13:34:27.098Z,16.34
2023-05-10T13:35:29.476Z,16.34
2023-05-10T13:36:32.287Z,16.32
2023-05-10T13:37:42.692Z,16.32
2023-05-10T13:38:45.104Z,16.33
2023-05-10T13:39:47.309Z,16.32
2023-05-10T13:40:53.844Z,16.29
2023-05-10T13:42:02.483Z,16.31
2023-05-10T13:43:04.987Z,16.29
2023-05-10T13:44:07.041Z,16.29
2023-05-10T13:45:12.151Z,16.24
2023-05-10T13:46:15.637Z,16.19
2023-05-10T13:47:20.216Z,16.16
2023-05-10T13:48:22.623Z,16.11
2023-05-10T13:49:24.978Z,16.03
2023-05-10T13:50:27.410Z,16.05
2023-05-10T13:51:30.394Z,16.10
2023-05-10T13:52:39.283Z,16.17
2023-05-10T13:53:44.736Z,16.23
2023-05-10T13:56:27.226Z,16.32
2023-05-10T13:57:29.864Z,16.36
2023-05-10T13:58:31.997Z,16.42
2023-05-10T13:59:37.138Z,16.41
2023-05-10T14:00:42.571Z,16.35
2023-05-10T14:01:44.942Z,16.16
2023-05-10T14:02:48.382Z,16.07
2023-05-10T14:03:51.251Z,16.07
2023-05-10T14:04:54.793Z,16.07
2023-05-10T14:05:57.334Z,16.13
2023-05-10T14:07:01.030Z,16.15
2023-05-10T14:08:05.288Z,16.20
2023-05-10T14:09:07.654Z,16.16
2023-05-10T14:10:11.967Z,16.12
2023-05-10T14:11:15.281Z,16.03
2023-05-10T14:12:17.627Z,16.02
2023-05-10T14:13:19.778Z,16.04
2023-05-10T14:14:25.171Z,16.07
2023-05-10T14:15:34.873Z,16.13
2023-05-10T14:16:37.346Z,16.18
2023-05-10T14:17:39.814Z,16.22
2023-05-10T14:18:43.016Z,16.26
2023-05-10T14:19:46.248Z,16.17
2023-05-10T14:20:50.372Z,16.18
2023-05-10T14:21:53.566Z,16.05
2023-05-10T14:22:56.196Z,16.01
2023-05-10T14:23:58.470Z,15.92
2023-05-10T14:25:00.815Z,15.92